createdAt,value
2023-06-07T00:01:14.554Z,100514.23
2023-06-07T00:06:17.780Z,100513.27
2023-06-07T00:11:22.958Z,100512.24
2023-06-07T00:16:25.834Z,100509.26
2023-06-07T00:21:29.356Z,100514.48
2023-06-07T00:26:32.432Z,100513.50
2023-06-07T00:31:35.304Z,100510.62
2023-06-07T00:36:38.220Z,100516.78
2023-06-07T00:41:41.115Z,100516.50
2023-06-07T00:46:44.775Z,100518.68
2023-06-07T00:51:47.839Z,100514.04
2023-06-07T00:56:51.640Z,100514.27
2023-06-07T01:01:56.944Z,100512.24
2023-06-07T01:07:02.890Z,100509.18
2023-06-07T01:12:07.236Z,100507.34
2023-06-07T01:17:10.244Z,100509.16
2023-06-07T01:22:15.311Z,100498.66
2023-06-07T01:27:18.476Z,100497.25
2023-06-07T01:32:22.815Z,100496.70
2023-06-07T01:37:26.481Z,100499.35
2023-06-07T01:42:29.946Z,100499.16
2023-06-07T01:47:33.628Z,100494.95
2023-06-07T01:52:36.652Z,100499.64
2023-06-07T01:57:51.612Z,100497.88
2023-06-07T02:03:07.414Z,100501.67
2023-06-07T02:08:20.575Z,100502.62
2023-06-07T02:13:26.592Z,100500.88
2023-06-07T02:18:29.371Z,100500.80
2023-06-07T02:23:32.225Z,100500.40
2023-06-07T02:28:35.067Z,100496.11
2023-06-07T02:33:37.848Z,100499.89
2023-06-07T02:38:40.778Z,100498.42
2023-06-07T02:43:45.145Z,100504.44
2023-06-07T02:48:47.994Z,100502.08
2023-06-07T02:53:50.980Z,100507.88
2023-06-07T02:58:53.756Z,100506.48
2023-06-07T03:03:58.162Z,100507.55
2023-06-07T03:09:00.987Z,100505.98
2023-06-07T03:14:03.828Z,100514.11
2023-06-07T03:19:07.161Z,100515.49
2023-06-07T03:24:10.194Z,100519.04
2023-06-07T03:29:13.129Z,100519.80
2023-06-07T03:34:16.204Z,100514.77
2023-06-07T03:39:19.063Z,100520.27
2023-06-07T03:44:21.915Z,100520.58
2023-06-07T03:49:24.689Z,100521.18
2023-06-07T03:54:27.559Z,100524.52
2023-06-07T03:59:33.299Z,100526.40
2023-06-07T04:04:36.433Z,100524.04
2023-06-07T04:09:41.113Z,100514.49
2023-06-07T04:14:43.916Z,100510.48
2023-06-07T04:19:51.378Z,100502.44
2023-06-07T04:24:54.814Z,100492.48
2023-06-07T04:29:59.061Z,100485.52
2023-06-07T04:35:01.893Z,100477.55
2023-06-07T04:40:05.424Z,100474.09
2023-06-07T04:45:11.151Z,100476.48
2023-06-07T04:50:14.906Z,100476.56
2023-06-07T04:55:18.956Z,100476.32
2023-06-07T05:00:22.930Z,100474.31
2023-06-07T05:05:26.133Z,100471.23
2023-06-07T05:10:29.049Z,100467.80
2023-06-07T05:15:32.456Z,100471.13
2023-06-07T05:20:35.345Z,100469.13
2023-06-07T05:25:40.096Z,100470.36
2023-06-07T05:30:42.900Z,100480.42
2023-06-07T05:35:47.361Z,100486.48
2023-06-07T05:40:50.860Z,100487.36
2023-06-07T05:45:53.817Z,100492.06
2023-06-07T05:50:58.279Z,100495.52
2023-06-07T05:56:01.197Z,100499.60
2023-06-07T06:01:06.755Z,100504.24
2023-06-07T06:06:17.475Z,100504.11
2023-06-07T06:11:21.092Z,100509.55
2023-06-07T06:16:24.123Z,100505.98
2023-06-07T06:21:27.601Z,100508.61
2023-06-07T06:26:34.189Z,100511.33
2023-06-07T06:31:37.196Z,100507.25
2023-06-07T06:36:59.795Z,100506.86
2023-06-07T06:42:12.643Z,100508.20
2023-06-07T06:47:16.200Z,100504.31
2023-06-07T06:52:19.026Z,100503.20
2023-06-07T06:57:26.256Z,100502.25
2023-06-07T07:02:32.497Z,100498.27
2023-06-07T07:07:41.956Z,100493.71
2023-06-07T07:12:44.854Z,100498.97
2023-06-07T07:17:49.547Z,100498.52
2023-06-07T07:22:53.071Z,100497.77
2023-06-07T07:28:04.103Z,100494.69
2023-06-07T07:33:07.533Z,100491.27
2023-06-07T07:38:10.588Z,100492.64
2023-06-07T07:43:16.951Z,100488.29
2023-06-07T07:48:19.844Z,100486.11
2023-06-07T07:53:22.882Z,100484.08
2023-06-07T07:58:34.077Z,100481.26
2023-06-07T08:03:37.193Z,100484.94
2023-06-07T08:08:41.292Z,100482.65
2023-06-07T08:13:45.523Z,100479.15
2023-06-07T08:18:56.691Z,100479.42
2023-06-07T08:24:00.593Z,100482.33
2023-06-07T08:29:05.162Z,100482.41
2023-06-07T08:34:10.158Z,100481.20
2023-06-07T08:39:13.845Z,100481.98
2023-06-07T08:44:16.947Z,100481.58
2023-06-07T08:49:23.873Z,100472.69
2023-06-07T08:54:29.037Z,100471.10
2023-06-07T08:59:32.666Z,100478.27
2023-06-07T09:04:36.131Z,100482.34
2023-06-07T09:09:45.254Z,100482.59
2023-06-07T09:14:48.256Z,100484.61
2023-06-07T09:19:53.762Z,100482.05
2023-06-07T09:24:56.808Z,100479.80
2023-06-07T09:30:07.039Z,100481.45
2023-06-07T09:35:15.066Z,100484.00
2023-06-07T09:40:19.815Z,100485.42
2023-06-07T09:45:26.949Z,100483.83
2023-06-07T09:50:31.195Z,100491.78
2023-06-07T09:55:35.985Z,100493.55
2023-06-07T10:00:43.542Z,100488.24
2023-06-07T10:05:47.224Z,100487.19
2023-06-07T10:10:53.831Z,100482.34
2023-06-07T10:16:00.043Z,100481.44
2023-06-07T10:21:27.461Z,100472.53
2023-06-07T10:26:36.527Z,100461.95
2023-06-07T10:31:53.072Z,100464.02
2023-06-07T10:36:59.628Z,100457.85
2023-06-07T10:42:02.679Z,100454.70
2023-06-07T10:47:23.770Z,100453.95
2023-06-07T10:52:28.001Z,100449.69
2023-06-07T10:57:39.687Z,100449.52
2023-06-07T11:02:45.500Z,100449.89
2023-06-07T11:07:52.149Z,100446.19
2023-06-07T11:12:56.320Z,100436.77
2023-06-07T11:18:05.126Z,100441.91
2023-06-07T11:23:30.676Z,100436.09
2023-06-07T11:28:40.342Z,100434.44
2023-06-07T11:33:45.990Z,100436.89
2023-06-07T11:38:53.229Z,100427.36
2023-06-07T11:43:57.935Z,100423.22
2023-06-07T11:49:13.511Z,100425.16
2023-06-07T11:54:16.742Z,100427.42
2023-06-07T11:59:22.699Z,100423.13
2023-06-07T12:04:26.521Z,100423.98
2023-06-07T12:09:30.147Z,100424.77
2023-06-07T12:14:35.319Z,100417.58
2023-06-07T12:19:38.935Z,100410.95
2023-06-07T12:24:42.551Z,100409.68
2023-06-07T12:29:45.972Z,100410.25
2023-06-07T12:34:50.297Z,100404.29
2023-06-07T12:39:53.579Z,100404.15
2023-06-07T12:44:56.845Z,100397.27
2023-06-07T12:49:59.902Z,100394.22
2023-06-07T12:55:03.061Z,100397.61
2023-06-07T13:00:07.203Z,100394.20
2023-06-07T13:05:14.186Z,100390.79
2023-06-07T13:10:17.382Z,100387.92
2023-06-07T13:15:20.272Z,100381.16
2023-06-07T13:20:25.427Z,100380.08
2023-06-07T13:25:28.450Z,100378.69
2023-06-07T13:30:32.791Z,100368.39
2023-06-07T13:35:37.955Z,100357.98
2023-06-07T13:40:43.932Z,100352.59
2023-06-07T13:45:46.958Z,100345.96
2023-06-07T13:50:52.997Z,100348.11
2023-06-07T13:55:56.151Z,100344.35
2023-06-07T14:01:03.999Z,100339.98
2023-06-07T14:06:07.454Z,100338.15
2023-06-07T14:11:10.511Z,100333.21
2023-06-07T14:16:13.835Z,100333.53
2023-06-07T14:21:16.954Z,100327.73
2023-06-07T14:26:20.970Z,100328.13
2023-06-07T14:31:24.070Z,100326.54
2023-06-07T14:36:26.940Z,100323.32
2023-06-07T14:41:29.773Z,100319.55
2023-06-07T14:46:32.747Z,100315.43
2023-06-07T14:51:36.299Z,100314.38
2023-06-07T14:56:39.260Z,100314.16
2023-06-07T15:01:42.620Z,100312.64
2023-06-07T15:06:46.508Z,100308.54
2023-06-07T15:11:50.092Z,100304.48
2023-06-07T15:16:54.929Z,100302.55
2023-06-07T15:21:59.805Z,100304.84
2023-06-07T15:27:02.838Z,100305.61
2023-06-07T15:32:06.437Z,100301.83
2023-06-07T15:37:10.708Z,100300.21
2023-06-07T15:42:15.070Z,100299.80
2023-06-07T15:47:18.412Z,100303.88
2023-06-07T15:52:21.394Z,100297.34
2023-06-07T15:57:24.521Z,100297.52
2023-06-07T16:02:27.483Z,100298.59
2023-06-07T16:07:30.426Z,100295.89
2023-06-07T16:12:33.674Z,100301.73
2023-06-07T16:17:39.362Z,100299.45
2023-06-07T16:22:44.822Z,100296.21
2023-06-07T16:27:47.945Z,100303.81
2023-06-07T16:32:50.878Z,100305.27
2023-06-07T16:37:54.003Z,100306.48
2023-06-07T16:42:56.845Z,100307.48
2023-06-07T16:47:59.738Z,100303.51
2023-06-07T16:53:03.194Z,100307.80
2023-06-07T16:58:07.637Z,100312.52
2023-06-07T17:03:10.952Z,100308.48
2023-06-07T17:08:14.580Z,100304.01
2023-06-07T17:13:17.472Z,100304.83
2023-06-07T17:18:22.116Z,100308.64
2023-06-07T17:23:25.242Z,100306.80
2023-06-07T17:28:30.579Z,100311.38
2023-06-07T17:33:33.448Z,100318.48
2023-06-07T17:38:36.505Z,100317.73
2023-06-07T17:43:39.512Z,100319.89
2023-06-07T17:48:42.469Z,100324.77
2023-06-07T17:53:45.925Z,100326.83
2023-06-07T17:58:48.880Z,100327.13
2023-06-07T18:03:57.875Z,100338.36
2023-06-07T18:09:01.184Z,100338.80
2023-06-07T18:14:04.077Z,100347.69
2023-06-07T18:19:07.280Z,100350.13
2023-06-07T18:24:12.552Z,100352.94
2023-06-07T18:29:17.802Z,100360.08
2023-06-07T18:34:20.829Z,100364.95
2023-06-07T18:39:24.117Z,100373.72
2023-06-07T18:44:27.066Z,100379.00
2023-06-07T18:49:30.041Z,100381.13
2023-06-07T18:54:33.140Z,100385.80
2023-06-07T18:59:36.069Z,100393.83
2023-06-07T19:04:48.501Z,100405.35
2023-06-07T19:09:56.342Z,100406.67
2023-06-07T19:14:59.359Z,100407.48
2023-06-07T19:20:02.292Z,100411.31
2023-06-07T19:25:06.400Z,100416.52
2023-06-07T19:30:10.404Z,100427.27
2023-06-07T19:35:13.885Z,100429.86
2023-06-07T19:40:18.582Z,100429.16
2023-06-07T19:45:22.638Z,100436.01
2023-06-07T19:50:25.790Z,100430.36
2023-06-07T19:55:28.708Z,100433.05
2023-06-07T20:00:31.957Z,100433.17
2023-06-07T20:05:35.527Z,100435.44
2023-06-07T20:10:38.438Z,100435.75
2023-06-07T20:15:41.332Z,100434.42
2023-06-07T20:20:44.151Z,100431.21
2023-06-07T20:25:47.174Z,100428.11
2023-06-07T20:30:50.062Z,100426.14
2023-06-07T20:35:53.537Z,100427.75
2023-06-07T20:40:56.342Z,100433.93
2023-06-07T20:45:59.483Z,100436.02
2023-06-07T20:51:02.518Z,100434.27
2023-06-07T20:56:05.528Z,100435.60
2023-06-07T21:01:09.259Z,100436.07
2023-06-07T21:06:13.514Z,100435.34
2023-06-07T21:11:16.912Z,100436.34
2023-06-07T21:16:19.920Z,100435.94
2023-06-07T21:21:23.561Z,100432.62
2023-06-07T21:26:27.473Z,100438.11
2023-06-07T21:31:30.527Z,100437.66
2023-06-07T21:36:33.565Z,100436.45
2023-06-07T21:41:36.587Z,100436.52
2023-06-07T21:46:39.512Z,100439.94
2023-06-07T21:51:42.447Z,100439.34
2023-06-07T21:56:45.630Z,100440.20
2023-06-07T22:01:48.537Z,100443.73
2023-06-07T22:06:51.406Z,100445.50
2023-06-07T22:11:55.671Z,100442.52
2023-06-07T22:17:01.775Z,100448.15
2023-06-07T22:22:04.899Z,100442.10
2023-06-07T22:27:10.339Z,100438.00
2023-06-07T22:32:15.525Z,100437.89
2023-06-07T22:37:22.085Z,100440.16
2023-06-07T22:42:24.959Z,100442.08
2023-06-07T22:47:31.386Z,100439.72
2023-06-07T22:52:36.183Z,100444.95
2023-06-07T22:57:39.227Z,100441.42
2023-06-07T23:02:42.227Z,100436.00
2023-06-07T23:07:45.253Z,100433.64
2023-06-07T23:12:48.131Z,100429.02
2023-06-07T23:17:54.193Z,100427.40
2023-06-07T23:22:57.223Z,100425.80
2023-06-07T23:28:00.154Z,100424.60
2023-06-07T23:33:04.189Z,100422.50
2023-06-07T23:38:07.205Z,100416.14
2023-06-07T23:43:10.098Z,100412.16
2023-06-07T23:48:13.334Z,100408.17
2023-06-07T23:53:16.253Z,100408.84
2023-06-07T23:58:19.420Z,100410.10
